Flight Track Log - Related Links

Times and Time Zones

All times are in EDT time to prevent confusion due to time zone crossing. See the EJA941 flight status page for this flight to view local times or setup timezone preferences in your user account.

Time Position Orientation Groundspeed Altitude Reporting Facility
EDT Latitude Longitude Course Direction KTS MPH feet Rate Location/Type
Fri 02:24:22 PM 47.5111 -122.2850 150° Southeast 175 201 1,100  Level Seattle Center
Fri 02:25:23 PM 47.4597 -122.2411 150° Southeast 222 255 4,000 2,902 Climbing Seattle Center
Fri 02:26:24 PM 47.4089 -122.1808 141° Southeast 257 296 7,000 2,829 Climbing Seattle Center
Fri 02:27:43 PM 47.4147 -122.0392 86° East 269 310 10,600 2,638 Climbing Seattle Center
Fri 02:28:45 PM 47.4206 -121.9147 86° East 282 325 13,200 2,244 Climbing Seattle Center
Fri 02:29:46 PM 47.4264 -121.7858 86° East 313 360 15,200 2,164 Climbing Seattle Center
Fri 02:30:47 PM 47.4292 -121.6550 88° East 320 368 17,600 2,164 Climbing Seattle Center
Fri 02:31:48 PM 47.4269 -121.5156 91° East 324 373 19,600 2,098 Climbing Seattle Center
Fri 02:32:50 PM 47.4136 -121.3825 98° East 332 382 21,900 2,341 Climbing Seattle Center
Fri 02:33:51 PM 47.3911 -121.2486 104° East 340 391 24,400 2,213 Climbing Seattle Center
Fri 02:34:52 PM 47.3719 -121.1133 102° East 342 394 26,400 1,951 Climbing Seattle Center
Fri 02:35:54 PM 47.3486 -120.9753 104° East 347 399 28,400 1,756 Climbing Seattle Center
Fri 02:36:55 PM 47.3264 -120.8322 103° East 358 412 30,000 1,512 Climbing Seattle Center
Fri 02:37:57 PM 47.3022 -120.6733 103° East 390 449 31,500 1,805 Climbing Seattle Center
Fri 02:38:58 PM 47.2733 -120.4822 106° East 400 460 33,700 1,623 Climbing Seattle Center
Fri 02:39:00 PM 47.2514 -120.4901 106° East  Level FlightAware Approximate
Fri 02:39:59 PM 47.2458 -120.3178 104° East 413 475 34,800  Level Seattle Center
Fri 02:41:01 PM 47.2189 -120.1461 103° East 429 494 35,800 732 Climbing Seattle Center
Fri 02:42:02 PM 47.1900 -119.9656 103° East 451 519 36,300 934 Climbing Seattle Center
Fri 02:43:03 PM 47.1592 -119.7853 104° East 456 525 37,700 683 Climbing Seattle Center
Fri 02:45:00 PM 47.0822 -119.4458 105° East  Level FlightAware Approximate
Fri 02:46:08 PM 47.0664 -119.2297 105° East 475 547 39,100  Level Seattle Center
Fri 02:47:09 PM 47.0269 -119.0047 104° East 477 549 39,700 590 Climbing Seattle Center
Fri 02:48:10 PM 46.9956 -118.8192 104° East 474 545 40,300 488 Climbing Seattle Center
Fri 02:49:12 PM 46.9619 -118.6342 105° East 473 544 40,700 341 Climbing Seattle Center
Fri 02:50:13 PM 46.9297 -118.4503 104° East 471 542 41,000 146 Climbing Seattle Center
Fri 02:51:15 PM 46.8956 -118.2642 105° East 475 547 41,000  Level Seattle Center
Fri 02:52:16 PM 46.8625 -118.0781 104° East 476 548 41,000  Level Seattle Center
Fri 02:53:17 PM 46.8275 -117.8883 105° East 483 556 41,000  Level Seattle Center
Fri 02:54:19 PM 46.7931 -117.6992 105° East 487 560 41,000  Level Seattle Center
Fri 02:55:20 PM 46.7489 -117.4683 106° East 496 571 41,000  Level Seattle Center
Fri 02:56:21 PM 46.7122 -117.2761 105° East 495 570 41,000  Level Seattle Center
Fri 02:57:23 PM 46.6764 -117.0850 105° East 495 570 41,000  Level Seattle Center
Fri 02:58:24 PM 46.6378 -116.8900 106° East 502 578 41,000  Level Seattle Center
Fri 02:59:26 PM 46.6011 -116.6961 105° East 502 578 41,000  Level Seattle Center
Fri 03:00:27 PM 46.5625 -116.5075 107° East 492 566 41,000  Level Seattle Center
Fri 03:01:28 PM 46.5250 -116.3161 106° East 493 567 41,000  Level Seattle Center
Fri 03:02:30 PM 46.4792 -116.0856 106° East 496 571 41,000  Level Seattle Center
Fri 03:03:31 PM 46.4397 -115.8942 107° East 495 570 41,000  Level Seattle Center
Fri 03:04:33 PM 46.3992 -115.7036 107° East 496 571 41,000  Level Seattle Center
Fri 03:05:34 PM 46.3608 -115.5089 106° East 504 580 41,000  Level Seattle Center
Fri 03:06:35 PM 46.3208 -115.3186 107° East 499 574 41,000  Level Seattle Center
Fri 03:07:37 PM 46.2808 -115.1297 107° East 496 571 41,000  Level Seattle Center
Fri 03:08:38 PM 46.2419 -114.9464 107° East 494 568 41,000  Level Seattle Center
Fri 03:09:40 PM 46.1928 -114.7197 107° East 494 568 41,000  Level Seattle Center
Fri 03:10:41 PM 46.1508 -114.5317 108° East 495 570 41,000  Level Seattle Center
Fri 03:11:43 PM 46.1103 -114.3422 107° East 496 571 41,000  Level Seattle Center
Fri 03:12:44 PM 46.0689 -114.1556 108° East 494 568 41,000  Level Seattle Center
Fri 03:13:45 PM 46.0269 -113.9678 108° East 495 570 41,000  Level Seattle Center
Fri 03:14:47 PM 45.9847 -113.7789 108° East 497 572 41,000  Level Seattle Center
Fri 03:15:48 PM 45.9411 -113.5925 109° East 496 571 41,000  Level Seattle Center
Fri 03:17:08 PM 45.8772 -113.3161 108° East 496 571 41,000  Level Salt Lake Center
Fri 03:18:10 PM 45.8336 -113.1281 108° East 497 572 41,000  Level Salt Lake Center
Fri 03:19:11 PM 45.7900 -112.9408 108° East 496 571 41,000  Level Salt Lake Center
Fri 03:20:13 PM 45.7447 -112.7533 109° East 498 573 41,000  Level Salt Lake Center
Fri 03:21:15 PM 45.7014 -112.5667 108° East 498 573 41,000  Level Salt Lake Center
Fri 03:22:17 PM 45.6572 -112.3794 109° East 498 573 41,000  Level Salt Lake Center
Fri 03:23:19 PM 45.6022 -112.1547 109° East 501 577 41,000  Level Salt Lake Center
Fri 03:24:21 PM 45.5561 -111.9692 109° East 500 575 41,000  Level Salt Lake Center
Fri 03:25:23 PM 45.5100 -111.7806 109° East 505 581 41,000  Level Salt Lake Center
Fri 03:26:25 PM 45.4642 -111.5939 109° East 504 580 41,000  Level Salt Lake Center
Fri 03:27:27 PM 45.4175 -111.4078 110° East 504 580 41,000  Level Salt Lake Center
Fri 03:28:29 PM 45.3606 -111.1864 110° East 503 579 41,000  Level Salt Lake Center
Fri 03:29:31 PM 45.3136 -111.0006 110° East 504 580 41,000  Level Salt Lake Center
Fri 03:30:33 PM 45.2664 -110.8147 110° East 504 580 41,000  Level Salt Lake Center
Fri 03:31:35 PM 45.2183 -110.6289 110° East 506 582 41,000  Level Salt Lake Center
Fri 03:32:37 PM 45.1672 -110.4347 110° East 507 583 41,000  Level Salt Lake Center
Fri 03:33:39 PM 45.1117 -110.2256 111° Southeast 508 585 41,000  Level Salt Lake Center
Fri 03:34:41 PM 45.0631 -110.0453 111° Southeast 511 588 41,000  Level Salt Lake Center
Fri 03:35:43 PM 45.0081 -109.8358 110° East 508 585 41,000  Level Salt Lake Center
Fri 03:36:45 PM 44.9600 -109.6581 111° Southeast 507 583 41,000  Level Salt Lake Center
Fri 03:37:47 PM 44.9031 -109.4497 111° Southeast 508 585 41,000  Level Salt Lake Center
Fri 03:38:49 PM 44.8547 -109.2725 111° Southeast 507 583 41,000  Level Salt Lake Center
Fri 03:39:51 PM 44.8050 -109.0947 111° Southeast 509 586 41,000  Level Salt Lake Center
Fri 03:40:53 PM 44.7453 -108.8861 112° Southeast 513 590 41,000  Level Salt Lake Center
Fri 03:41:55 PM 44.6956 -108.7083 111° Southeast 512 589 41,000  Level Salt Lake Center
Fri 03:42:57 PM 44.6372 -108.4983 111° Southeast 516 594 41,000  Level Salt Lake Center
Fri 03:43:59 PM 44.5853 -108.3200 112° Southeast 516 594 41,000  Level Salt Lake Center
Fri 03:45:01 PM 44.5272 -108.1125 111° Southeast 514 592 41,000  Level Salt Lake Center
Fri 03:46:03 PM 44.4767 -107.9392 112° Southeast 513 590 41,000  Level Salt Lake Center
Fri 03:47:05 PM 44.4164 -107.7325 112° Southeast 514 592 41,000  Level Salt Lake Center
Fri 03:48:07 PM 44.3589 -107.5372 112° Southeast 514 592 41,000  Level Salt Lake Center
Fri 03:49:09 PM 44.3072 -107.3625 112° Southeast 510 587 41,000  Level Salt Lake Center
Fri 03:50:11 PM 44.2464 -107.1578 112° Southeast 512 589 41,000  Level Salt Lake Center
Fri 03:51:13 PM 44.1936 -106.9836 113° Southeast 510 587 41,000  Level Salt Lake Center
Fri 03:52:15 PM 44.1403 -106.8067 113° Southeast 514 592 41,000  Level Salt Lake Center
Fri 03:53:17 PM 44.0775 -106.6039 113° Southeast 514 592 41,000  Level Salt Lake Center
Fri 03:54:19 PM 44.0239 -106.4286 113° Southeast 514 592 41,000  Level Salt Lake Center
Fri 03:55:21 PM 43.9606 -106.2225 113° Southeast 518 596 41,000  Level Salt Lake Center
Fri 03:56:23 PM 43.9050 -106.0469 114° Southeast 518 596 41,000  Level Salt Lake Center
Fri 03:57:25 PM 43.8417 -105.8417 113° Southeast 519 597 41,000  Level Salt Lake Center
Fri 03:58:27 PM 43.7867 -105.6681 114° Southeast 517 595 41,000  Level Salt Lake Center
Fri 03:59:28 PM 43.7236 -105.4700 114° Southeast 511 588 41,000  Level Salt Lake Center
Fri 04:00:30 PM 43.6689 -105.3017 114° Southeast 506 582 41,000  Level Salt Lake Center
Fri 04:01:48 PM 43.5956 -105.0772 114° Southeast 502 578 41,000  Level Denver Center
Fri 04:02:50 PM 43.5317 -104.8825 114° Southeast 500 575 41,000  Level Denver Center
Fri 04:03:52 PM 43.4775 -104.7153 114° Southeast 499 574 41,000  Level Denver Center
Fri 04:04:54 PM 43.4142 -104.5211 114° Southeast 498 573 41,000  Level Denver Center
Fri 04:05:56 PM 43.3592 -104.3567 115° Southeast 496 571 41,000  Level Denver Center
Fri 04:06:58 PM 43.3033 -104.1939 115° Southeast 494 568 41,000  Level Denver Center
Fri 04:08:00 PM 43.2392 -104.0025 115° Southeast 493 567 41,000  Level Denver Center
Fri 04:09:03 PM 43.1836 -103.8392 115° Southeast 493 567 41,000  Level Denver Center
Fri 04:10:05 PM 43.1192 -103.6531 115° Southeast 488 562 41,000  Level Denver Center
Fri 04:11:07 PM 43.0653 -103.4958 115° Southeast 479 551 41,000  Level Denver Center
Fri 04:12:09 PM 43.0025 -103.3161 115° Southeast 471 542 41,000  Level Denver Center
Fri 04:13:11 PM 42.9489 -103.1622 115° Southeast 469 540 41,000  Level Denver Center
Fri 04:14:13 PM 42.8861 -102.9833 116° Southeast 468 539 41,000  Level Denver Center
Fri 04:15:15 PM 42.8328 -102.8322 116° Southeast 464 534 41,000  Level Denver Center
Fri 04:16:17 PM 42.7689 -102.6564 116° Southeast 464 534 41,000  Level Denver Center
Fri 04:17:19 PM 42.7175 -102.5078 115° Southeast 456 525 41,000  Level Denver Center
Fri 04:18:21 PM 42.6625 -102.3581 117° Southeast 461 531 41,000  Level Denver Center
Fri 04:19:23 PM 42.6006 -102.1822 116° Southeast 465 535 41,000  Level Denver Center
Fri 04:20:25 PM 42.5456 -102.0311 116° Southeast 466 536 41,000  Level Denver Center
Fri 04:21:27 PM 42.4831 -101.8553 116° Southeast 465 535 41,000  Level Denver Center
Fri 04:22:29 PM 42.4233 -101.7008 118° Southeast 468 539 41,000  Level Denver Center
Fri 04:23:31 PM 42.3592 -101.5233 116° Southeast 470 541 41,000  Level Denver Center
Fri 04:24:34 PM 42.3025 -101.3703 117° Southeast 474 545 41,000  Level Denver Center
Fri 04:25:36 PM 42.2458 -101.2164 116° Southeast 477 549 41,000  Level Denver Center
Fri 04:26:38 PM 42.1772 -101.0369 117° Southeast 482 555 41,000  Level Denver Center
Fri 04:27:40 PM 42.1192 -100.8806 117° Southeast 486 559 41,000  Level Denver Center
Fri 04:28:42 PM 42.0494 -100.7017 118° Southeast 483 556 41,000  Level Denver Center
Fri 04:29:56 PM 41.9900 -100.5456 117° Southeast 487 560 41,000  Level Denver Center
Fri 04:30:58 PM 41.9100 -100.3378 117° Southeast 490 564 41,000  Level Denver Center
Fri 04:32:00 PM 41.8497 -100.1822 117° Southeast 489 563 41,000  Level Denver Center
Fri 04:33:02 PM 41.7792 -99.9997 117° Southeast 492 566 41,000  Level Denver Center
Fri 04:34:04 PM 41.7186 -99.8417 117° Southeast 495 570 41,000  Level Denver Center
Fri 04:35:06 PM 41.6458 -99.6558 118° Southeast 498 573 41,000  Level Denver Center
Fri 04:36:08 PM 41.5800 -99.4925 118° Southeast 498 573 41,000  Level Denver Center
Fri 04:37:10 PM 41.5158 -99.3303 118° Southeast 496 571 41,000  Level Denver Center
Fri 04:38:12 PM 41.4508 -99.1672 118° Southeast 497 572 41,000  Level Denver Center
Fri 04:39:14 PM 41.3853 -99.0036 118° Southeast 498 573 41,000  Level Denver Center
Fri 04:40:06 PM 41.3278 -98.8667 119° Southeast 499 574 41,000  Level Minneapolis Center
Fri 04:41:08 PM 41.2650 -98.7058 117° Southeast 497 572 41,000  Level Minneapolis Center
Fri 04:42:10 PM 41.1850 -98.5142 119° Southeast 495 570 41,000  Level Minneapolis Center
Fri 04:43:12 PM 41.1172 -98.3508 119° Southeast 492 566 41,000  Level Minneapolis Center
Fri 04:44:14 PM 41.0506 -98.1911 119° Southeast 492 566 41,000  Level Minneapolis Center
Fri 04:45:16 PM 40.9847 -98.0333 119° Southeast 490 564 41,000  Level Minneapolis Center
Fri 04:46:18 PM 40.9181 -97.8764 119° Southeast 489 563 41,000  Level Minneapolis Center
Fri 04:47:20 PM 40.8531 -97.7197 119° Southeast 488 562 41,000  Level Minneapolis Center
Fri 04:48:23 PM 40.7867 -97.5650 120° Southeast 484 557 41,000  Level Minneapolis Center
Fri 04:49:25 PM 40.7083 -97.3800 119° Southeast 482 555 41,000  Level Minneapolis Center
Fri 04:50:27 PM 40.6472 -97.2350 119° Southeast 482 555 41,000  Level Minneapolis Center
Fri 04:51:29 PM 40.5806 -97.0808 120° Southeast 485 558 41,000  Level Minneapolis Center
Fri 04:52:31 PM 40.5147 -96.9278 119° Southeast 483 556 41,000  Level Minneapolis Center
Fri 04:53:33 PM 40.4347 -96.7422 119° Southeast 487 560 41,000  Level Minneapolis Center
Fri 04:54:35 PM 40.3683 -96.5911 120° Southeast 483 556 41,000  Level Minneapolis Center
Fri 04:55:37 PM 40.3017 -96.4392 120° Southeast 484 557 41,000 96 Level Minneapolis Center
Fri 04:56:40 PM 40.2350 -96.2867 120° Southeast 483 556 41,200 528 Climbing Minneapolis Center
Fri 04:57:42 PM 40.1975 -96.1219 107° East 483 556 42,100 871 Climbing Minneapolis Center
Fri 04:58:44 PM 40.1975 -95.9019 90° East 503 579 43,000 435 Climbing Minneapolis Center
Fri 04:59:46 PM 40.1975 -95.7192 90° East 506 582 43,000  Level Minneapolis Center
Fri 05:00:48 PM 40.1961 -95.5314 90° East 512 589 43,000  Level Minneapolis Center
Fri 05:03:16 PM 40.1911 -95.0761 91° East 526 605 43,000  Level Kansas City Center
Fri 05:04:18 PM 40.1889 -94.8622 91° East 526 605 43,000  Level Kansas City Center
Fri 05:05:20 PM 40.1856 -94.6828 91° East 517 595 43,000  Level Kansas City Center
Fri 05:06:22 PM 40.1828 -94.4744 91° East 512 589 43,000  Level Kansas City Center
Fri 05:07:24 PM 40.1797 -94.2989 91° East 507 583 43,000  Level Kansas City Center
Fri 05:08:26 PM 40.1786 -94.0947 90° East 504 580 43,000  Level Kansas City Center
Fri 05:09:28 PM 40.1750 -93.9311 92° East 510 587 43,000  Level Kansas City Center
Fri 05:10:30 PM 40.2067 -93.7131 79° East 513 590 43,000  Level Kansas City Center
Fri 05:11:32 PM 40.2322 -93.5319 79° East 512 589 43,000  Level Kansas City Center
Fri 05:12:34 PM 40.2567 -93.3519 80° East 508 585 43,000  Level Kansas City Center
Fri 05:13:36 PM 40.2539 -93.1736 91° East 494 568 43,000  Level Kansas City Center
Fri 05:14:38 PM 40.2497 -92.9961 92° East 477 549 43,000  Level Kansas City Center
Fri 05:15:40 PM 40.2311 -92.8089 97° East 467 537 43,000  Level Kansas City Center
Fri 05:16:42 PM 40.2114 -92.6478 99° East 468 539 43,000  Level Kansas City Center
Fri 05:17:44 PM 40.1906 -92.4597 98° East 467 537 43,000 -242 Level Kansas City Center
Fri 05:18:46 PM 40.1719 -92.2800 98° East 474 545 42,500 -919 Descending Kansas City Center
Fri 05:19:48 PM 40.1525 -92.1153 99° East 469 540 41,100 -1,355 Descending Kansas City Center
Fri 05:20:50 PM 40.1336 -91.9522 99° East 463 533 39,700 -1,355 Descending Kansas City Center
Fri 05:21:52 PM 40.1136 -91.7889 99° East 460 529 38,300 -1,306 Descending Kansas City Center
Fri 05:22:54 PM 40.0939 -91.6236 99° East 463 533 37,000 -629 Descending Kansas City Center
Fri 05:23:56 PM 40.0697 -91.4208 99° East 472 543 37,000 -290 Level Kansas City Center
Fri 05:24:58 PM 40.0472 -91.2450 99° East 489 563 36,400 -864 Descending Kansas City Center
Fri 05:26:01 PM 40.0253 -91.0692 99° East 495 570 35,200 -672 Descending Kansas City Center
Fri 05:27:03 PM 39.9997 -90.8700 99° East 504 580 35,000 -97 Descending Kansas City Center
Fri 05:28:05 PM 39.9756 -90.6847 100° East 512 589 35,000  Level Kansas City Center
Fri 05:29:07 PM 39.9419 -90.5033 104° East 515 593 35,000  Level Kansas City Center
Fri 05:30:09 PM 39.8953 -90.3303 109° East 512 589 35,000 -484 Level Kansas City Center
Fri 05:31:11 PM 39.8411 -90.1225 109° East 509 586 34,000 -1,258 Descending Kansas City Center
Fri 05:32:13 PM 39.7956 -89.9489 109° East 510 587 32,400 -1,452 Descending Kansas City Center
Fri 05:33:15 PM 39.7503 -89.7750 109° East 510 587 31,000 -677 Descending Kansas City Center
Fri 05:34:17 PM 39.7100 -89.5967 106° East 514 592 31,000 -484 Level Kansas City Center
Fri 05:35:19 PM 39.6958 -89.4011 95° East 517 595 30,000 -1,258 Descending Kansas City Center
Fri 05:36:21 PM 39.6925 -89.2181 91° East 529 609 28,400 -1,645 Descending Kansas City Center
Fri 05:37:23 PM 39.6911 -88.9872 90° East 536 617 26,600 -1,839 Descending Kansas City Center
Fri 05:38:25 PM 39.7014 -88.8053 86° East 515 593 24,600 -1,258 Descending Kansas City Center
Fri 05:39:27 PM 39.7131 -88.6264 85° East 504 580 24,000 -290 Descending Kansas City Center
Fri 05:40:29 PM 39.7233 -88.4522 86° East 492 566 24,000  Level Kansas City Center
Fri 05:41:31 PM 39.7317 -88.2778 86° East 486 559 24,000  Level Kansas City Center
Fri 05:42:33 PM 39.7414 -88.0719 86° East 483 556 24,000  Level Kansas City Center
Fri 05:43:10 PM 39.7467 -87.9664 86° East 485 558 24,000 -121 Level Indianapolis Center
Fri 05:44:12 PM 39.7553 -87.7936 86° East 483 556 23,800 -774 Descending Indianapolis Center
Fri 05:45:14 PM 39.7628 -87.6158 87° East 487 560 22,400 -1,306 Descending Indianapolis Center
Fri 05:46:16 PM 39.7708 -87.4403 87° East 490 564 21,100 -1,500 Descending Indianapolis Center
Fri 05:47:18 PM 39.7789 -87.2708 86° East 478 550 19,300 -1,597 Descending Indianapolis Center
Fri 05:48:20 PM 39.7850 -87.1067 87° East 463 533 17,800 -1,500 Descending Indianapolis Center
Fri 05:49:22 PM 39.7933 -86.9217 87° East 434 499 16,200 -1,500 Descending Indianapolis Center
Fri 05:50:24 PM 39.7989 -86.7703 87° East 425 489 14,700 -1,500 Descending Indianapolis Center
Fri 05:51:26 PM 39.8044 -86.6250 87° East 411 473 13,100 -1,597 Descending Indianapolis Center
Fri 05:52:28 PM 39.8094 -86.4881 87° East 390 449 11,400 -1,645 Descending Indianapolis Center
Fri 05:53:30 PM 39.8108 -86.3703 89° East 335 386 9,700 -1,839 Descending Indianapolis Center
Fri 05:54:32 PM 39.8000 -86.2642 98° East 295 339 7,600 -2,177 Descending Indianapolis Center
Fri 05:55:34 PM 39.7917 -86.1608 96° East 286 329 5,200 -2,226 Descending Indianapolis Center
Fri 05:56:36 PM 39.7900 -86.0664 91° East 273 314 3,000 -1,210 Descending Indianapolis Center
Fri 05:57:38 PM 39.8017 -85.9861 79° East 245 282 2,700 -288 Descending Indianapolis Center
Fri 05:58:41 PM 39.8019 -85.9025 90° East 211 243 2,400 -336 Descending Indianapolis Center
Fri 05:59:43 PM 39.8172 -85.8464 70° East 184 212 2,000 -484 Descending Indianapolis Center
Fri 06:00:45 PM 39.8486 -85.8625 338° Northwest 160 184 1,400 -435 Descending Indianapolis Center
Fri 06:01:47 PM 39.8397 -85.9028 254° West 150 173 1,100 -290 Descending Indianapolis Center

Login

Don't have an account? Register now (free) for customized features, flight alerts, and more!